sensor_id;sensor_type;location;lat;lon;timestamp;P1;durP1;ratioP1;P2;durP2;ratioP2
68921;SDS011;55959;51.244;5.724;2023-04-01T00:00:54;1.30;;;0.80;;
68921;SDS011;55959;51.244;5.724;2023-04-01T00:03:21;1.87;;;0.90;;
68921;SDS011;55959;51.244;5.724;2023-04-01T00:05:49;1.07;;;0.80;;
68921;SDS011;55959;51.244;5.724;2023-04-01T00:08:15;2.77;;;1.00;;
68921;SDS011;55959;51.244;5.724;2023-04-01T00:10:41;2.10;;;0.80;;
68921;SDS011;55959;51.244;5.724;2023-04-01T00:13:07;2.97;;;1.00;;
68921;SDS011;55959;51.244;5.724;2023-04-01T00:15:34;3.40;;;1.17;;
68921;SDS011;55959;51.244;5.724;2023-04-01T00:18:00;1.73;;;0.83;;
68921;SDS011;55959;51.244;5.724;2023-04-01T00:20:26;2.93;;;1.07;;
68921;SDS011;55959;51.244;5.724;2023-04-01T00:22:53;2.63;;;0.90;;
68921;SDS011;55959;51.244;5.724;2023-04-01T00:25:19;1.57;;;0.90;;
68921;SDS011;55959;51.244;5.724;2023-04-01T00:27:45;2.23;;;0.93;;
68921;SDS011;55959;51.244;5.724;2023-04-01T00:30:10;2.67;;;0.70;;
68921;SDS011;55959;51.244;5.724;2023-04-01T00:32:37;2.70;;;0.87;;
68921;SDS011;55959;51.244;5.724;2023-04-01T00:35:03;2.23;;;0.60;;
68921;SDS011;55959;51.244;5.724;2023-04-01T00:37:30;2.90;;;1.10;;
68921;SDS011;55959;51.244;5.724;2023-04-01T00:39:56;1.40;;;0.73;;
68921;SDS011;55959;51.244;5.724;2023-04-01T00:42:22;1.57;;;0.53;;
68921;SDS011;55959;51.244;5.724;2023-04-01T00:44:50;1.00;;;0.60;;
68921;SDS011;55959;51.244;5.724;2023-04-01T00:47:19;2.83;;;0.90;;
68921;SDS011;55959;51.244;5.724;2023-04-01T00:49:46;2.30;;;0.73;;
68921;SDS011;55959;51.244;5.724;2023-04-01T00:52:15;1.53;;;0.90;;
68921;SDS011;55959;51.244;5.724;2023-04-01T00:54:45;1.17;;;0.77;;
68921;SDS011;55959;51.244;5.724;2023-04-01T00:57:25;2.00;;;0.97;;
68921;SDS011;55959;51.244;5.724;2023-04-01T01:00:03;1.07;;;0.70;;
68921;SDS011;55959;51.244;5.724;2023-04-01T01:02:32;1.67;;;0.93;;
68921;SDS011;55959;51.244;5.724;2023-04-01T01:04:59;2.50;;;0.83;;
68921;SDS011;55959;51.244;5.724;2023-04-01T01:15:57;1.10;;;0.60;;
68921;SDS011;55959;51.244;5.724;2023-04-01T01:21:10;0.93;;;0.70;;
68921;SDS011;55959;51.244;5.724;2023-04-01T01:27:24;1.47;;;0.70;;
68921;SDS011;55959;51.244;5.724;2023-04-01T01:36:04;1.37;;;0.67;;
68921;SDS011;55959;51.244;5.724;2023-04-01T01:38:34;1.43;;;0.70;;
68921;SDS011;55959;51.244;5.724;2023-04-01T01:41:01;0.67;;;0.30;;
68921;SDS011;55959;51.244;5.724;2023-04-01T01:43:37;1.13;;;0.53;;
68921;SDS011;55959;51.244;5.724;2023-04-01T01:46:09;1.90;;;0.70;;
68921;SDS011;55959;51.244;5.724;2023-04-01T01:48:38;0.67;;;0.40;;
68921;SDS011;55959;51.244;5.724;2023-04-01T01:51:07;0.70;;;0.40;;
68921;SDS011;55959;51.244;5.724;2023-04-01T01:53:33;2.60;;;0.63;;
68921;SDS011;55959;51.244;5.724;2023-04-01T01:56:00;0.80;;;0.40;;
68921;SDS011;55959;51.244;5.724;2023-04-01T01:58:33;2.00;;;0.60;;
68921;SDS011;55959;51.244;5.724;2023-04-01T02:01:06;1.17;;;0.47;;
68921;SDS011;55959;51.244;5.724;2023-04-01T02:03:39;2.10;;;0.80;;
68921;SDS011;55959;51.244;5.724;2023-04-01T02:06:06;1.87;;;0.60;;
68921;SDS011;55959;51.244;5.724;2023-04-01T02:11:06;1.17;;;0.47;;
68921;SDS011;55959;51.244;5.724;2023-04-01T02:13:49;0.93;;;0.40;;
68921;SDS011;55959;51.244;5.724;2023-04-01T02:16:26;1.57;;;0.60;;
68921;SDS011;55959;51.244;5.724;2023-04-01T02:18:57;1.43;;;0.60;;
68921;SDS011;55959;51.244;5.724;2023-04-01T02:21:26;0.93;;;0.50;;
68921;SDS011;55959;51.244;5.724;2023-04-01T02:23:56;1.23;;;0.60;;
68921;SDS011;55959;51.244;5.724;2023-04-01T02:26:24;1.27;;;0.70;;
68921;SDS011;55959;51.244;5.724;2023-04-01T02:28:51;1.30;;;0.50;;
68921;SDS011;55959;51.244;5.724;2023-04-01T02:31:19;0.87;;;0.70;;
68921;SDS011;55959;51.244;5.724;2023-04-01T02:33:46;1.00;;;0.60;;
68921;SDS011;55959;51.244;5.724;2023-04-01T02:36:13;1.70;;;0.50;;
68921;SDS011;55959;51.244;5.724;2023-04-01T02:38:40;1.03;;;0.60;;
68921;SDS011;55959;51.244;5.724;2023-04-01T02:41:08;0.70;;;0.50;;
68921;SDS011;55959;51.244;5.724;2023-04-01T02:43:34;0.83;;;0.50;;
68921;SDS011;55959;51.244;5.724;2023-04-01T02:46:00;0.93;;;0.50;;
68921;SDS011;55959;51.244;5.724;2023-04-01T02:48:27;2.60;;;0.70;;
68921;SDS011;55959;51.244;5.724;2023-04-01T02:50:54;0.40;;;0.40;;
68921;SDS011;55959;51.244;5.724;2023-04-01T02:53:20;0.83;;;0.47;;
68921;SDS011;55959;51.244;5.724;2023-04-01T02:55:46;1.63;;;0.70;;
68921;SDS011;55959;51.244;5.724;2023-04-01T02:58:15;1.40;;;0.80;;
68921;SDS011;55959;51.244;5.724;2023-04-01T03:00:41;1.47;;;0.60;;
68921;SDS011;55959;51.244;5.724;2023-04-01T03:03:07;1.57;;;0.80;;
68921;SDS011;55959;51.244;5.724;2023-04-01T03:05:38;1.43;;;0.80;;
68921;SDS011;55959;51.244;5.724;2023-04-01T03:08:04;1.47;;;0.77;;
68921;SDS011;55959;51.244;5.724;2023-04-01T03:10:31;1.07;;;0.80;;
68921;SDS011;55959;51.244;5.724;2023-04-01T03:12:58;1.23;;;0.90;;
68921;SDS011;55959;51.244;5.724;2023-04-01T03:15:23;1.13;;;0.73;;
68921;SDS011;55959;51.244;5.724;2023-04-01T03:17:49;0.70;;;0.70;;
68921;SDS011;55959;51.244;5.724;2023-04-01T03:20:16;0.93;;;0.83;;
68921;SDS011;55959;51.244;5.724;2023-04-01T03:22:42;1.00;;;0.70;;
68921;SDS011;55959;51.244;5.724;2023-04-01T03:25:08;0.97;;;0.70;;
68921;SDS011;55959;51.244;5.724;2023-04-01T03:27:34;1.33;;;0.90;;
68921;SDS011;55959;51.244;5.724;2023-04-01T03:30:01;1.20;;;0.90;;
68921;SDS011;55959;51.244;5.724;2023-04-01T03:32:31;1.37;;;0.70;;
68921;SDS011;55959;51.244;5.724;2023-04-01T03:34:57;1.13;;;0.63;;
68921;SDS011;55959;51.244;5.724;2023-04-01T03:37:23;0.77;;;0.70;;
68921;SDS011;55959;51.244;5.724;2023-04-01T03:39:49;0.93;;;0.93;;
68921;SDS011;55959;51.244;5.724;2023-04-01T03:42:15;1.63;;;1.00;;
68921;SDS011;55959;51.244;5.724;2023-04-01T03:44:41;1.20;;;1.00;;
68921;SDS011;55959;51.244;5.724;2023-04-01T03:47:06;1.30;;;1.20;;
68921;SDS011;55959;51.244;5.724;2023-04-01T03:49:34;1.23;;;1.07;;
68921;SDS011;55959;51.244;5.724;2023-04-01T03:52:00;0.83;;;0.77;;
68921;SDS011;55959;51.244;5.724;2023-04-01T03:54:25;1.03;;;0.87;;
68921;SDS011;55959;51.244;5.724;2023-04-01T03:56:51;1.50;;;1.23;;
68921;SDS011;55959;51.244;5.724;2023-04-01T03:59:17;1.20;;;0.90;;
68921;SDS011;55959;51.244;5.724;2023-04-01T04:01:42;1.50;;;1.10;;
68921;SDS011;55959;51.244;5.724;2023-04-01T04:04:10;1.87;;;0.90;;
68921;SDS011;55959;51.244;5.724;2023-04-01T04:06:38;1.20;;;1.10;;
68921;SDS011;55959;51.244;5.724;2023-04-01T04:09:03;1.40;;;1.13;;
68921;SDS011;55959;51.244;5.724;2023-04-01T04:11:30;1.03;;;0.90;;
68921;SDS011;55959;51.244;5.724;2023-04-01T04:13:57;1.33;;;1.00;;
68921;SDS011;55959;51.244;5.724;2023-04-01T04:16:24;1.40;;;1.30;;
68921;SDS011;55959;51.244;5.724;2023-04-01T04:18:50;1.77;;;1.30;;
68921;SDS011;55959;51.244;5.724;2023-04-01T04:21:17;2.03;;;1.60;;
68921;SDS011;55959;51.244;5.724;2023-04-01T04:23:43;2.10;;;1.07;;
68921;SDS011;55959;51.244;5.724;2023-04-01T04:26:10;1.50;;;1.40;;
68921;SDS011;55959;51.244;5.724;2023-04-01T04:28:38;1.47;;;1.37;;
68921;SDS011;55959;51.244;5.724;2023-04-01T04:31:04;1.53;;;1.43;;
68921;SDS011;55959;51.244;5.724;2023-04-01T04:33:31;1.30;;;1.20;;
68921;SDS011;55959;51.244;5.724;2023-04-01T04:35:57;1.90;;;1.80;;
68921;SDS011;55959;51.244;5.724;2023-04-01T04:38:24;1.60;;;1.50;;
68921;SDS011;55959;51.244;5.724;2023-04-01T04:40:51;1.60;;;1.50;;
68921;SDS011;55959;51.244;5.724;2023-04-01T04:43:17;1.80;;;1.70;;
68921;SDS011;55959;51.244;5.724;2023-04-01T04:45:44;1.90;;;1.80;;
68921;SDS011;55959;51.244;5.724;2023-04-01T04:48:11;1.97;;;1.77;;
68921;SDS011;55959;51.244;5.724;2023-04-01T04:50:41;2.00;;;1.90;;
68921;SDS011;55959;51.244;5.724;2023-04-01T04:53:13;2.27;;;1.83;;
68921;SDS011;55959;51.244;5.724;2023-04-01T04:55:45;2.10;;;1.90;;
68921;SDS011;55959;51.244;5.724;2023-04-01T04:58:12;2.10;;;2.00;;
68921;SDS011;55959;51.244;5.724;2023-04-01T05:00:38;2.10;;;2.00;;
68921;SDS011;55959;51.244;5.724;2023-04-01T05:03:04;2.60;;;2.40;;
68921;SDS011;55959;51.244;5.724;2023-04-01T05:05:30;2.33;;;2.00;;
68921;SDS011;55959;51.244;5.724;2023-04-01T05:07:56;2.10;;;2.00;;
68921;SDS011;55959;51.244;5.724;2023-04-01T05:10:21;2.47;;;2.30;;
68921;SDS011;55959;51.244;5.724;2023-04-01T05:12:47;2.70;;;2.50;;
68921;SDS011;55959;51.244;5.724;2023-04-01T05:15:13;2.30;;;2.20;;
68921;SDS011;55959;51.244;5.724;2023-04-01T05:17:40;2.43;;;2.30;;
68921;SDS011;55959;51.244;5.724;2023-04-01T05:20:05;2.93;;;2.73;;
68921;SDS011;55959;51.244;5.724;2023-04-01T05:22:32;2.70;;;2.50;;
68921;SDS011;55959;51.244;5.724;2023-04-01T05:24:58;2.50;;;2.30;;
68921;SDS011;55959;51.244;5.724;2023-04-01T05:27:23;2.50;;;2.30;;
68921;SDS011;55959;51.244;5.724;2023-04-01T05:29:49;2.37;;;2.27;;
68921;SDS011;55959;51.244;5.724;2023-04-01T05:32:15;2.07;;;1.97;;
68921;SDS011;55959;51.244;5.724;2023-04-01T05:34:41;2.20;;;2.00;;
68921;SDS011;55959;51.244;5.724;2023-04-01T05:37:07;2.00;;;1.90;;
68921;SDS011;55959;51.244;5.724;2023-04-01T05:39:36;1.80;;;1.70;;
68921;SDS011;55959;51.244;5.724;2023-04-01T05:42:05;1.83;;;1.73;;
68921;SDS011;55959;51.244;5.724;2023-04-01T05:44:32;1.83;;;1.73;;
68921;SDS011;55959;51.244;5.724;2023-04-01T05:46:58;1.83;;;1.67;;
68921;SDS011;55959;51.244;5.724;2023-04-01T05:49:24;1.60;;;1.50;;
68921;SDS011;55959;51.244;5.724;2023-04-01T05:51:50;1.20;;;1.10;;
68921;SDS011;55959;51.244;5.724;2023-04-01T05:54:16;1.23;;;1.20;;
68921;SDS011;55959;51.244;5.724;2023-04-01T05:56:42;1.27;;;1.20;;
68921;SDS011;55959;51.244;5.724;2023-04-01T05:59:09;1.30;;;1.20;;
68921;SDS011;55959;51.244;5.724;2023-04-01T06:01:35;1.33;;;1.23;;
68921;SDS011;55959;51.244;5.724;2023-04-01T06:04:01;1.13;;;1.10;;
68921;SDS011;55959;51.244;5.724;2023-04-01T06:06:28;0.97;;;0.80;;
68921;SDS011;55959;51.244;5.724;2023-04-01T06:08:57;0.93;;;0.90;;
68921;SDS011;55959;51.244;5.724;2023-04-01T06:12:16;1.40;;;0.80;;
68921;SDS011;55959;51.244;5.724;2023-04-01T06:17:54;1.33;;;1.17;;
68921;SDS011;55959;51.244;5.724;2023-04-01T06:23:20;1.00;;;1.00;;
68921;SDS011;55959;51.244;5.724;2023-04-01T06:58:35;0.90;;;0.90;;
68921;SDS011;55959;51.244;5.724;2023-04-01T07:01:07;0.83;;;0.83;;
68921;SDS011;55959;51.244;5.724;2023-04-01T07:03:47;0.70;;;0.70;;
68921;SDS011;55959;51.244;5.724;2023-04-01T07:06:26;0.77;;;0.77;;
68921;SDS011;55959;51.244;5.724;2023-04-01T07:08:58;0.80;;;0.80;;
68921;SDS011;55959;51.244;5.724;2023-04-01T07:11:31;0.60;;;0.60;;
68921;SDS011;55959;51.244;5.724;2023-04-01T07:14:12;0.70;;;0.70;;
68921;SDS011;55959;51.244;5.724;2023-04-01T07:16:51;0.80;;;0.80;;
68921;SDS011;55959;51.244;5.724;2023-04-01T07:19:31;0.83;;;0.83;;
68921;SDS011;55959;51.244;5.724;2023-04-01T07:22:37;0.60;;;0.60;;
68921;SDS011;55959;51.244;5.724;2023-04-01T07:25:26;0.90;;;0.90;;
68921;SDS011;55959;51.244;5.724;2023-04-01T07:28:04;1.40;;;1.00;;
68921;SDS011;55959;51.244;5.724;2023-04-01T07:31:22;0.70;;;0.70;;
68921;SDS011;55959;51.244;5.724;2023-04-01T07:33:39;1.03;;;0.87;;
68921;SDS011;55959;51.244;5.724;2023-04-01T07:42:11;0.87;;;0.87;;
68921;SDS011;55959;51.244;5.724;2023-04-01T07:45:21;0.60;;;0.60;;
68921;SDS011;55959;51.244;5.724;2023-04-01T07:48:17;0.97;;;0.80;;
68921;SDS011;55959;51.244;5.724;2023-04-01T07:51:20;1.27;;;0.90;;
68921;SDS011;55959;51.244;5.724;2023-04-01T07:56:51;1.27;;;1.17;;
68921;SDS011;55959;51.244;5.724;2023-04-01T08:08:29;2.20;;;1.60;;
68921;SDS011;55959;51.244;5.724;2023-04-01T08:17:47;2.90;;;2.70;;
68921;SDS011;55959;51.244;5.724;2023-04-01T08:20:53;3.90;;;3.47;;
68921;SDS011;55959;51.244;5.724;2023-04-01T08:23:33;3.40;;;3.10;;
68921;SDS011;55959;51.244;5.724;2023-04-01T08:26:49;5.20;;;4.60;;
68921;SDS011;55959;51.244;5.724;2023-04-01T08:29:02;4.10;;;3.70;;
68921;SDS011;55959;51.244;5.724;2023-04-01T08:34:26;5.20;;;4.70;;
68921;SDS011;55959;51.244;5.724;2023-04-01T08:37:19;5.30;;;4.80;;
68921;SDS011;55959;51.244;5.724;2023-04-01T08:39:57;4.07;;;3.77;;
68921;SDS011;55959;51.244;5.724;2023-04-01T08:48:48;3.93;;;3.53;;
68921;SDS011;55959;51.244;5.724;2023-04-01T09:00:50;2.60;;;2.10;;
68921;SDS011;55959;51.244;5.724;2023-04-01T09:03:32;1.77;;;1.67;;
68921;SDS011;55959;51.244;5.724;2023-04-01T09:09:13;2.10;;;2.00;;
68921;SDS011;55959;51.244;5.724;2023-04-01T09:18:24;1.60;;;1.50;;
68921;SDS011;55959;51.244;5.724;2023-04-01T09:21:23;1.80;;;1.70;;
68921;SDS011;55959;51.244;5.724;2023-04-01T09:27:29;2.30;;;2.20;;
68921;SDS011;55959;51.244;5.724;2023-04-01T09:38:59;4.10;;;3.80;;
68921;SDS011;55959;51.244;5.724;2023-04-01T09:42:21;4.40;;;3.80;;
68921;SDS011;55959;51.244;5.724;2023-04-01T09:51:37;4.03;;;3.73;;
68921;SDS011;55959;51.244;5.724;2023-04-01T09:57:16;4.03;;;3.63;;
68921;SDS011;55959;51.244;5.724;2023-04-01T10:00:21;3.13;;;2.93;;
68921;SDS011;55959;51.244;5.724;2023-04-01T10:06:18;3.77;;;3.47;;
68921;SDS011;55959;51.244;5.724;2023-04-01T10:18:03;4.40;;;3.10;;
68921;SDS011;55959;51.244;5.724;2023-04-01T10:44:51;5.17;;;3.03;;
68921;SDS011;55959;51.244;5.724;2023-04-01T11:05:58;4.20;;;3.90;;
68921;SDS011;55959;51.244;5.724;2023-04-01T11:14:54;2.50;;;2.30;;
68921;SDS011;55959;51.244;5.724;2023-04-01T11:20:35;2.70;;;1.87;;
68921;SDS011;55959;51.244;5.724;2023-04-01T11:23:24;3.20;;;2.40;;
68921;SDS011;55959;51.244;5.724;2023-04-01T11:26:27;2.57;;;1.87;;
68921;SDS011;55959;51.244;5.724;2023-04-01T11:34:56;2.07;;;1.90;;
68921;SDS011;55959;51.244;5.724;2023-04-01T11:40:47;2.43;;;2.23;;
68921;SDS011;55959;51.244;5.724;2023-04-01T11:46:00;1.70;;;1.60;;
68921;SDS011;55959;51.244;5.724;2023-04-01T12:11:50;2.03;;;1.93;;
68921;SDS011;55959;51.244;5.724;2023-04-01T12:27:10;2.53;;;1.50;;
68921;SDS011;55959;51.244;5.724;2023-04-01T12:29:44;2.20;;;1.47;;
68921;SDS011;55959;51.244;5.724;2023-04-01T12:32:46;1.63;;;1.47;;
68921;SDS011;55959;51.244;5.724;2023-04-01T12:35:33;1.37;;;1.27;;
68921;SDS011;55959;51.244;5.724;2023-04-01T12:41:53;1.00;;;0.90;;
68921;SDS011;55959;51.244;5.724;2023-04-01T13:12:46;2.13;;;1.40;;
68921;SDS011;55959;51.244;5.724;2023-04-01T13:16:01;1.40;;;1.30;;
68921;SDS011;55959;51.244;5.724;2023-04-01T13:27:13;1.60;;;1.50;;
68921;SDS011;55959;51.244;5.724;2023-04-01T13:36:46;2.03;;;1.10;;
68921;SDS011;55959;51.244;5.724;2023-04-01T13:44:48;1.27;;;1.17;;
68921;SDS011;55959;51.244;5.724;2023-04-01T13:53:39;1.57;;;1.47;;
68921;SDS011;55959;51.244;5.724;2023-04-01T14:10:36;1.43;;;1.33;;
68921;SDS011;55959;51.244;5.724;2023-04-01T14:19:03;1.70;;;1.30;;
68921;SDS011;55959;51.244;5.724;2023-04-01T14:21:53;2.27;;;1.47;;
68921;SDS011;55959;51.244;5.724;2023-04-01T14:36:19;2.70;;;1.93;;
68921;SDS011;55959;51.244;5.724;2023-04-01T14:50:24;1.60;;;1.50;;
68921;SDS011;55959;51.244;5.724;2023-04-01T14:56:01;2.00;;;1.90;;
68921;SDS011;55959;51.244;5.724;2023-04-01T15:13:18;1.80;;;1.30;;
68921;SDS011;55959;51.244;5.724;2023-04-01T15:27:36;1.97;;;1.73;;
68921;SDS011;55959;51.244;5.724;2023-04-01T15:30:33;1.70;;;1.60;;
68921;SDS011;55959;51.244;5.724;2023-04-01T15:33:20;2.13;;;1.50;;
68921;SDS011;55959;51.244;5.724;2023-04-01T15:38:49;1.67;;;1.57;;
68921;SDS011;55959;51.244;5.724;2023-04-01T15:44:53;2.10;;;2.00;;
68921;SDS011;55959;51.244;5.724;2023-04-01T15:47:53;2.00;;;1.80;;
68921;SDS011;55959;51.244;5.724;2023-04-01T15:54:16;2.23;;;2.00;;
68921;SDS011;55959;51.244;5.724;2023-04-01T16:06:37;2.20;;;2.10;;
68921;SDS011;55959;51.244;5.724;2023-04-01T16:23:51;1.60;;;1.50;;
68921;SDS011;55959;51.244;5.724;2023-04-01T16:26:31;1.60;;;1.50;;
68921;SDS011;55959;51.244;5.724;2023-04-01T16:35:30;1.30;;;1.20;;
68921;SDS011;55959;51.244;5.724;2023-04-01T16:38:08;1.20;;;1.10;;
68921;SDS011;55959;51.244;5.724;2023-04-01T16:46:51;1.43;;;1.33;;
68921;SDS011;55959;51.244;5.724;2023-04-01T16:49:39;1.10;;;1.00;;
68921;SDS011;55959;51.244;5.724;2023-04-01T17:16:36;1.63;;;1.23;;
68921;SDS011;55959;51.244;5.724;2023-04-01T17:19:56;1.50;;;1.17;;
68921;SDS011;55959;51.244;5.724;2023-04-01T17:31:03;1.40;;;1.30;;
68921;SDS011;55959;51.244;5.724;2023-04-01T17:33:50;2.80;;;1.27;;
68921;SDS011;55959;51.244;5.724;2023-04-01T17:36:52;1.23;;;1.13;;
68921;SDS011;55959;51.244;5.724;2023-04-01T17:39:48;2.17;;;1.30;;
68921;SDS011;55959;51.244;5.724;2023-04-01T17:42:38;1.10;;;1.10;;
68921;SDS011;55959;51.244;5.724;2023-04-01T17:45:21;1.30;;;1.20;;
68921;SDS011;55959;51.244;5.724;2023-04-01T18:01:46;1.27;;;1.17;;
68921;SDS011;55959;51.244;5.724;2023-04-01T18:07:12;1.27;;;1.20;;
68921;SDS011;55959;51.244;5.724;2023-04-01T18:10:13;2.73;;;1.07;;
68921;SDS011;55959;51.244;5.724;2023-04-01T18:12:59;1.20;;;1.10;;
68921;SDS011;55959;51.244;5.724;2023-04-01T18:19:06;1.70;;;1.30;;
68921;SDS011;55959;51.244;5.724;2023-04-01T18:21:47;1.40;;;1.30;;
68921;SDS011;55959;51.244;5.724;2023-04-01T18:32:35;2.20;;;2.00;;
68921;SDS011;55959;51.244;5.724;2023-04-01T18:38:25;2.00;;;1.90;;
68921;SDS011;55959;51.244;5.724;2023-04-01T18:41:11;2.17;;;1.97;;
68921;SDS011;55959;51.244;5.724;2023-04-01T18:49:48;2.30;;;2.20;;
68921;SDS011;55959;51.244;5.724;2023-04-01T18:52:52;2.77;;;2.57;;
68921;SDS011;55959;51.244;5.724;2023-04-01T18:55:53;3.60;;;3.30;;
68921;SDS011;55959;51.244;5.724;2023-04-01T19:03:48;3.63;;;3.37;;
68921;SDS011;55959;51.244;5.724;2023-04-01T19:06:32;3.13;;;2.93;;
68921;SDS011;55959;51.244;5.724;2023-04-01T19:09:23;3.20;;;2.90;;
68921;SDS011;55959;51.244;5.724;2023-04-01T19:12:12;4.10;;;3.80;;
68921;SDS011;55959;51.244;5.724;2023-04-01T19:30:23;4.27;;;3.90;;
68921;SDS011;55959;51.244;5.724;2023-04-01T19:33:04;3.67;;;3.37;;
68921;SDS011;55959;51.244;5.724;2023-04-01T19:44:09;3.50;;;3.20;;
68921;SDS011;55959;51.244;5.724;2023-04-01T19:46:45;3.33;;;3.13;;
68921;SDS011;55959;51.244;5.724;2023-04-01T19:52:23;3.40;;;3.17;;
68921;SDS011;55959;51.244;5.724;2023-04-01T19:58:06;3.40;;;3.20;;
68921;SDS011;55959;51.244;5.724;2023-04-01T20:00:44;3.50;;;3.20;;
68921;SDS011;55959;51.244;5.724;2023-04-01T20:09:35;3.50;;;3.20;;
68921;SDS011;55959;51.244;5.724;2023-04-01T20:15:33;3.37;;;3.07;;
68921;SDS011;55959;51.244;5.724;2023-04-01T20:26:39;3.00;;;2.80;;
68921;SDS011;55959;51.244;5.724;2023-04-01T20:37:55;3.53;;;3.33;;
68921;SDS011;55959;51.244;5.724;2023-04-01T20:44:02;3.40;;;3.20;;
68921;SDS011;55959;51.244;5.724;2023-04-01T20:46:48;3.10;;;2.90;;
68921;SDS011;55959;51.244;5.724;2023-04-01T20:49:39;2.83;;;2.63;;
68921;SDS011;55959;51.244;5.724;2023-04-01T21:01:13;4.23;;;3.93;;
68921;SDS011;55959;51.244;5.724;2023-04-01T21:04:30;4.57;;;4.27;;
68921;SDS011;55959;51.244;5.724;2023-04-01T21:07:52;4.20;;;3.90;;
68921;SDS011;55959;51.244;5.724;2023-04-01T21:10:40;4.07;;;3.77;;
68921;SDS011;55959;51.244;5.724;2023-04-01T21:13:31;3.80;;;3.57;;
68921;SDS011;55959;51.244;5.724;2023-04-01T21:48:45;2.90;;;2.70;;
68921;SDS011;55959;51.244;5.724;2023-04-01T21:51:49;2.70;;;2.50;;
68921;SDS011;55959;51.244;5.724;2023-04-01T21:54:59;2.30;;;2.10;;
68921;SDS011;55959;51.244;5.724;2023-04-01T22:00:59;2.30;;;2.20;;
68921;SDS011;55959;51.244;5.724;2023-04-01T22:03:42;2.30;;;2.10;;
68921;SDS011;55959;51.244;5.724;2023-04-01T22:14:34;2.33;;;2.13;;
68921;SDS011;55959;51.244;5.724;2023-04-01T22:17:44;2.70;;;2.60;;
68921;SDS011;55959;51.244;5.724;2023-04-01T22:26:08;2.60;;;2.50;;
68921;SDS011;55959;51.244;5.724;2023-04-01T22:34:27;3.07;;;2.87;;
68921;SDS011;55959;51.244;5.724;2023-04-01T22:37:16;2.80;;;2.60;;
68921;SDS011;55959;51.244;5.724;2023-04-01T22:40:19;2.50;;;2.30;;
68921;SDS011;55959;51.244;5.724;2023-04-01T22:43:37;3.67;;;3.37;;
68921;SDS011;55959;51.244;5.724;2023-04-01T22:48:47;2.83;;;2.60;;
68921;SDS011;55959;51.244;5.724;2023-04-01T22:54:22;1.97;;;1.87;;
68921;SDS011;55959;51.244;5.724;2023-04-01T22:57:14;2.40;;;1.83;;
68921;SDS011;55959;51.244;5.724;2023-04-01T23:00:14;2.33;;;1.90;;
68921;SDS011;55959;51.244;5.724;2023-04-01T23:03:00;2.10;;;2.00;;
68921;SDS011;55959;51.244;5.724;2023-04-01T23:05:56;2.20;;;2.10;;
68921;SDS011;55959;51.244;5.724;2023-04-01T23:11:32;2.60;;;2.37;;
68921;SDS011;55959;51.244;5.724;2023-04-01T23:17:01;2.17;;;2.07;;
68921;SDS011;55959;51.244;5.724;2023-04-01T23:25:55;3.70;;;3.40;;
68921;SDS011;55959;51.244;5.724;2023-04-01T23:28:39;3.23;;;3.03;;
68921;SDS011;55959;51.244;5.724;2023-04-01T23:31:28;3.10;;;2.90;;
68921;SDS011;55959;51.244;5.724;2023-04-01T23:36:42;2.67;;;2.50;;
68921;SDS011;55959;51.244;5.724;2023-04-01T23:42:06;2.80;;;2.60;;
68921;SDS011;55959;51.244;5.724;2023-04-01T23:44:57;2.17;;;2.07;;
68921;SDS011;55959;51.244;5.724;2023-04-01T23:47:30;2.70;;;2.50;;
68921;SDS011;55959;51.244;5.724;2023-04-01T23:50:04;2.20;;;2.10;;
68921;SDS011;55959;51.244;5.724;2023-04-01T23:52:40;2.70;;;2.50;;
